Aviation Digital Data Service (ADDS)

Output produced by TAFs form (1637 UTC 28 August 2016)
found at http://aviationweather.gov/adds/tafs/
 
KVEL 281120Z 2812/2912 29004KT P6SM SCT150 
     FM281800 15005KT P6SM SCT120 
     FM290200 31003KT P6SM SKC